Pagina principale
METAR-TAF:

METAR-TAF

Aeroporti :

Aeroporto di Osijek-Klisa

Osijek, Croazia

latitudine: 45-27N, longitudine: 018-48E, altezza: 88 m

Osservazione

Il bollettino è stato emesso 11 minuti fa, alle 10:30 UTC
Vento 13 kt da est/sud-est, variando fra est e sud/sud-est
Temperature 20°C
Umidità 43%
Pressione 1022 hPa
Visibilità 10 km o più
nessuna nube inferiore a 1500 m e nessun cumulonembo

METAR: LDOS 151030Z 12013KT 090V150 CAVOK 20/07 Q1022

Ora: 12:41 (10:41 UTC)

Previsione

Il bollettino è stato emesso 5 ore e 16 minuti fa, alle 05:25 UTC
Previsione valida dal 15 alle 06 UTC al 16 alle 06 UTC
Vento 8 kt da est/sud-est
Visibilità 10 km o più
nessuna nube inferiore a 1500 m e nessun cumulonembo
Evoluzione graduale
dal 15 alle 23 UTC al 16 alle 01 UTC
Vento 5 kt da est/sud-est

TAF: LDOS 150525Z 1506/1606 11008KT CAVOK TX22/1512Z TN06/1604Z BECMG 1523/1601 11005KT

Osservazioni e previsioni meteorologiche di più di 4000 aeroporti (messaggi METAR e TAF).

Le stazioni disponibili sono rappresentate dai dischi gialli e rossi sulla carta.

Puntare il mouse per vedere il nome della stazione.

Clicca sopra per visualizzare le osservazioni e previsioni meteorologiche.

Per cambiare la mappa : fare clic sui pulsanti verdi con una croce nera per ingrandire, il pulsante verde con un trattino per diminuire, o sulla freccia verde per le mappe adiacenti.


METAR-TAF: